.
WxDataArchive / Data Records for 2008-10-28
2008-10-27 October 2008 2008-10-29

Data Records for Tuesday, 28 October 2008

Time	Temp	Chill	HIndex	Humid	Dewpt	 Wind 	HiWind	WindDir	Rain 	Barom 
-----	----	-----	------	-----	-----	------	------	-------	-----	----- 
00:00	33.5	33.5	33.5	89	30.6	0	2	315	0.00	30.217 
00:05	33.4	33.4	33.4	89	30.5	0	1	315	0.00	30.218 
00:10	33.4	33.4	33.4	89	30.5	0	2	315	0.00	30.219 
00:15	33.2	33.2	33.2	89	30.3	0	1	315	0.00	30.220 
00:20	33.1	33.1	33.1	89	30.2	0	1	315	0.00	30.219 
00:25	33.1	33.1	33.1	89	30.2	0	2	315	0.00	30.218 
00:30	32.9	32.9	32.9	89	30.0	0	1	315	0.00	30.218 
00:35	32.8	32.8	32.8	89	29.9	0	2	315	0.00	30.217 
00:40	32.7	32.7	32.7	89	29.8	0	1	315	0.00	30.218 
00:45	32.5	32.5	32.5	89	29.6	0	1	315	0.00	30.219 
00:50	32.5	32.5	32.5	89	29.6	0	1	315	0.00	30.220 
00:55	32.4	32.4	32.4	90	29.8	0	1	315	0.00	30.221 
01:00	32.4	32.4	32.4	90	29.8	0	2	315	0.00	30.220 
01:05	32.4	32.4	32.4	90	29.8	0	1	315	0.00	30.223 
01:10	32.2	32.2	32.2	90	29.6	0	1	315	0.00	30.223 
01:15	32.2	32.2	32.2	90	29.6	0	2	315	0.00	30.222 
01:20	32.2	32.2	32.2	90	29.6	0	2	315	0.00	30.222 
01:25	32.1	32.1	32.1	90	29.5	0	1	315	0.00	30.222 
01:30	32.1	32.1	32.1	90	29.5	0	1	315	0.00	30.222 
01:35	31.9	31.9	31.9	90	29.3	0	2	315	0.00	30.221 
01:40	31.9	31.9	31.9	90	29.3	0	2	315	0.00	30.221 
01:45	31.9	31.9	31.9	90	29.3	0	1	315	0.00	30.222 
01:50	31.8	31.8	31.8	90	29.2	0	1	315	0.00	30.223 
01:55	31.6	31.6	31.6	90	29.0	0	1	315	0.00	30.227 
02:00	31.6	31.6	31.6	90	29.0	0	2	315	0.00	30.230 
02:05	31.6	31.6	31.6	90	29.0	0	1	315	0.00	30.226 
02:10	31.5	31.5	31.5	90	28.9	0	1	315	0.00	30.225 
02:15	31.5	31.5	31.5	90	28.9	0	2	315	0.00	30.228 
02:20	31.3	31.3	31.3	90	28.7	0	1	315	0.00	30.230 
02:25	31.3	31.3	31.3	90	28.7	0	2	248	0.00	30.229 
02:30	31.3	31.3	31.3	90	28.7	0	1	270	0.00	30.230 
02:35	31.3	31.3	31.3	90	28.7	0	2	270	0.00	30.229 
02:40	31.2	31.2	31.2	90	28.6	0	3	270	0.00	30.229 
02:45	31.2	31.2	31.2	90	28.6	0	1	270	0.00	30.229 
02:50	31.2	31.2	31.2	90	28.6	0	1	270	0.00	30.228 
02:55	31.2	31.2	31.2	90	28.6	0	2	270	0.00	30.228 
03:00	31.2	31.2	31.2	90	28.6	0	1	270	0.00	30.227 
03:05	31.0	31.0	31.0	90	28.4	0	1	270	0.00	30.225 
03:10	31.0	31.0	31.0	90	28.4	0	2	270	0.00	30.227 
03:15	31.0	31.0	31.0	90	28.4	0	2	270	0.00	30.230 
03:20	31.2	31.2	31.2	90	28.6	0	2	315	0.00	30.225 
03:25	31.2	31.2	31.2	90	28.6	0	2	315	0.00	30.228 
03:30	31.2	31.2	31.2	90	28.6	0	2	315	0.00	30.226 
03:35	31.2	31.2	31.2	90	28.6	0	2	315	0.00	30.223 
03:40	31.2	31.2	31.2	89	28.3	0	3	315	0.00	30.223 
03:45	31.2	31.2	31.2	89	28.3	0	1	315	0.00	30.221 
03:50	31.0	31.0	31.0	89	28.1	0	1	315	0.00	30.223 
03:55	31.0	31.0	31.0	89	28.1	0	1	315	0.00	30.226 
04:00	31.0	31.0	31.0	89	28.1	0	1	315	0.00	30.226 
04:05	31.0	31.0	31.0	89	28.1	0	1	315	0.00	30.227 
04:10	31.0	31.0	31.0	89	28.1	0	3	315	0.00	30.225 
04:15	31.0	31.0	31.0	89	28.1	0	1	270	0.00	30.229 
04:20	31.0	31.0	31.0	89	28.1	0	1	270	0.00	30.232 
04:25	30.9	30.9	30.9	89	28.0	0	2	270	0.00	30.233 
04:30	31.0	31.0	31.0	89	28.1	0	1	270	0.00	30.235 
04:35	30.9	30.9	30.9	89	28.0	0	2	270	0.00	30.235 
04:40	31.0	31.0	31.0	89	28.1	0	3	315	0.00	30.236 
04:45	31.0	31.0	31.0	89	28.1	1	2	315	0.00	30.236 
04:50	31.2	31.2	31.2	89	28.3	0	3	315	0.00	30.236 
04:55	31.0	31.0	31.0	89	28.1	0	2	248	0.00	30.238 
05:00	31.0	31.0	31.0	89	28.1	0	1	292	0.00	30.240 
05:05	31.2	31.2	31.2	89	28.3	0	2	292	0.00	30.243 
05:10	31.2	31.2	31.2	89	28.3	0	1	292	0.00	30.242 
05:15	31.2	31.2	31.2	89	28.3	1	3	292	0.00	30.242 
05:20	31.3	31.3	31.3	89	28.4	1	2	315	0.00	30.246 
05:25	31.3	31.3	31.3	88	28.2	0	2	315	0.00	30.250 
05:30	31.3	31.3	31.3	88	28.2	0	2	315	0.00	30.251 
05:35	31.2	31.2	31.2	88	28.1	0	2	315	0.00	30.247 
05:40	31.2	31.2	31.2	88	28.1	0	1	270	0.00	30.251 
05:45	31.0	31.0	31.0	88	27.9	0	3	270	0.00	30.251 
05:50	31.0	31.0	31.0	88	27.9	0	2	270	0.00	30.251 
05:55	31.0	31.0	31.0	88	27.9	0	1	270	0.00	30.251 
06:00	31.0	31.0	31.0	88	27.9	0	2	270	0.00	30.251 
06:05	31.0	31.0	31.0	88	27.9	0	2	292	0.00	30.254 
06:10	31.0	31.0	31.0	88	27.9	0	1	292	0.00	30.254 
06:15	30.9	30.9	30.9	88	27.8	0	1	292	0.00	30.253 
06:20	30.9	30.9	30.9	88	27.8	0	1	292	0.00	30.254 
06:25	30.9	30.9	30.9	88	27.8	0	2	292	0.00	30.254 
06:30	30.9	30.9	30.9	89	28.0	0	2	315	0.00	30.255 
06:35	30.9	30.9	30.9	89	28.0	0	1	315	0.00	30.255 
06:40	30.7	30.7	30.7	89	27.8	0	1	315	0.00	30.255 
06:45	30.7	30.7	30.7	89	27.8	0	1	315	0.00	30.256 
06:50	30.7	30.7	30.7	89	27.8	0	1	315	0.00	30.255 
06:55	30.7	30.7	30.7	89	27.8	0	0	---	0.00	30.256 
07:00	30.6	30.6	30.6	89	27.8	0	0	---	0.00	30.257 
07:05	30.4	30.4	30.4	89	27.6	0	1	315	0.00	30.262 
07:10	30.4	30.4	30.4	89	27.6	0	1	315	0.00	30.265 
07:15	30.6	30.6	30.6	89	27.8	0	1	315	0.00	30.263 
07:20	30.6	30.6	30.6	89	27.8	0	1	315	0.00	30.265 
07:25	30.6	30.6	30.6	89	27.8	0	2	315	0.00	30.268 
07:30	30.6	30.6	30.6	89	27.8	0	1	315	0.00	30.271 
07:35	30.7	30.7	30.7	89	27.8	0	1	315	0.00	30.271 
07:40	30.9	30.9	30.9	89	28.0	0	2	315	0.00	30.272 
07:45	31.0	31.0	31.0	90	28.4	0	1	315	0.00	30.271 
07:50	31.2	31.2	31.2	90	28.6	0	1	315	0.00	30.270 
07:55	31.5	31.5	31.5	90	28.9	0	1	315	0.00	30.272 
08:00	31.8	31.8	31.8	89	28.9	0	1	315	0.00	30.275 
08:05	32.1	32.1	32.1	89	29.2	1	3	315	0.00	30.277 
08:10	32.5	32.5	32.5	89	29.6	1	3	270	0.00	30.278 
08:15	32.9	32.9	32.9	88	29.7	0	2	270	0.00	30.276 
08:20	33.2	33.2	33.2	88	30.0	0	1	270	0.00	30.275 
08:25	33.7	33.7	33.7	87	30.3	0	2	270	0.00	30.272 
08:30	34.0	34.0	34.0	86	30.3	0	3	292	0.00	30.272 
08:35	34.3	34.3	34.3	85	30.3	0	2	292	0.01	30.273 
08:40	34.7	34.7	34.7	84	30.4	0	2	292	0.00	30.278 
08:45	35.3	35.3	35.3	84	31.0	1	2	292	0.00	30.279 
08:50	35.8	35.8	35.8	83	31.2	1	6	315	0.00	30.274 
08:55	36.0	36.0	36.0	81	30.7	1	3	292	0.00	30.273 
09:00	36.2	36.2	36.2	81	30.9	1	4	315	0.00	30.273 
09:05	36.5	36.5	36.5	80	30.9	1	4	315	0.00	30.270 
09:10	36.6	36.6	36.6	80	31.0	1	3	248	0.00	30.269 
09:15	36.8	36.8	36.8	79	30.9	1	2	338	0.00	30.269 
09:20	36.8	36.8	36.8	80	31.2	0	3	338	0.00	30.271 
09:25	37.0	37.0	37.0	79	31.1	1	2	248	0.00	30.272 
09:30	37.3	37.3	37.3	79	31.4	0	2	315	0.00	30.272 
09:35	37.3	37.3	37.3	78	31.1	0	2	315	0.00	30.272 
09:40	37.5	37.5	37.5	78	31.3	1	3	292	0.00	30.271 
09:45	37.6	37.6	37.6	77	31.1	1	2	315	0.00	30.269 
09:50	37.6	37.6	37.6	76	30.7	1	3	315	0.00	30.271 
09:55	37.8	37.8	37.8	76	30.9	1	4	292	0.00	30.268 
10:00	38.0	38.0	38.0	76	31.1	1	3	315	0.00	30.267 
10:05	38.2	38.2	38.2	76	31.3	1	2	315	0.00	30.267 
10:10	38.5	38.5	38.5	74	30.9	2	6	292	0.00	30.265 
10:15	38.5	38.5	38.5	75	31.3	1	4	292	0.00	30.265 
10:20	38.6	38.6	38.6	75	31.4	1	4	292	0.00	30.265 
10:25	38.8	38.8	38.8	74	31.2	1	4	292	0.00	30.265 
10:30	38.9	38.9	38.9	75	31.7	1	4	315	0.00	30.265 
10:35	39.3	39.3	39.3	74	31.7	1	3	270	0.00	30.264 
10:40	39.5	39.5	39.5	74	31.9	1	3	270	0.00	30.264 
10:45	39.9	39.9	39.9	74	32.3	1	3	270	0.00	30.265 
10:50	39.9	39.9	39.9	74	32.3	2	4	270	0.00	30.268 
10:55	39.6	39.6	39.6	73	31.7	2	5	270	0.00	30.269 
11:00	39.6	39.6	39.6	73	31.7	1	4	292	0.00	30.268 
11:05	39.6	39.6	39.6	73	31.7	1	3	315	0.00	30.267 
11:10	39.9	39.9	39.9	73	32.0	1	4	315	0.00	30.265 
11:15	39.9	39.9	39.9	73	32.0	2	5	270	0.00	30.266 
11:20	40.1	40.1	40.1	73	32.2	1	3	270	0.00	30.267 
11:25	40.1	40.1	40.1	73	32.2	1	4	248	0.00	30.265 
11:30	40.1	40.1	40.1	73	32.2	1	3	315	0.00	30.264 
11:35	40.2	40.2	40.2	73	32.2	1	4	248	0.00	30.263 
11:40	40.3	40.3	40.3	73	32.3	1	4	338	0.00	30.263 
11:45	40.5	40.5	40.5	73	32.5	1	3	270	0.00	30.262 
11:50	40.6	40.6	40.6	72	32.3	1	4	315	0.00	30.260 
11:55	40.6	40.6	40.6	71	31.9	2	5	315	0.00	30.255 
12:00	40.5	40.5	40.5	71	31.8	1	4	338	0.00	30.253 
12:05	40.6	40.6	40.6	73	32.6	2	4	270	0.00	30.254 
12:10	40.3	40.3	40.3	73	32.3	2	4	315	0.00	30.253 
12:15	40.2	40.2	40.2	73	32.2	1	4	315	0.00	30.252 
12:20	40.2	40.2	40.2	74	32.6	1	3	248	0.00	30.251 
12:25	40.1	40.1	40.1	73	32.2	1	3	248	0.00	30.248 
12:30	39.9	39.9	39.9	74	32.3	1	3	315	0.00	30.241 
12:35	39.9	39.9	39.9	75	32.6	1	3	338	0.00	30.237 
12:40	39.6	39.6	39.6	77	33.0	2	4	270	0.00	30.236 
12:45	39.3	39.3	39.3	79	33.3	2	5	270	0.00	30.237 
12:50	38.9	38.9	38.9	81	33.6	2	6	292	0.00	30.237 
12:55	38.8	38.8	38.8	82	33.8	2	3	248	0.00	30.236 
13:00	38.8	38.8	38.8	82	33.8	1	4	248	0.00	30.235 
13:05	38.8	38.8	38.8	83	34.1	2	6	270	0.00	30.234 
13:10	38.6	38.6	38.6	84	34.2	1	4	270	0.00	30.234 
13:15	38.5	38.5	38.5	84	34.1	1	3	270	0.00	30.228 
13:20	38.3	38.3	38.3	85	34.2	1	3	338	0.00	30.225 
13:25	38.2	38.2	38.2	86	34.4	1	4	338	0.00	30.221 
13:30	38.2	38.2	38.2	87	34.7	2	3	292	0.00	30.215 
13:35	38.5	38.5	38.5	87	35.0	1	2	292	0.00	30.210 
13:40	38.9	38.9	38.9	88	35.7	1	4	248	0.00	30.208 
13:45	39.3	39.3	39.3	87	35.8	1	4	248	0.00	30.205 
13:50	39.5	39.5	39.5	86	35.7	1	4	270	0.00	30.203 
13:55	39.5	39.5	39.5	85	35.4	2	3	248	0.00	30.205 
14:00	39.3	39.3	39.3	85	35.2	1	4	292	0.00	30.204 
14:05	39.2	39.2	39.2	84	34.8	1	5	315	0.00	30.204 
14:10	39.3	39.3	39.3	84	34.9	2	6	315	0.00	30.202 
14:15	39.6	39.6	39.6	82	34.6	2	6	270	0.00	30.198 
14:20	40.1	40.1	40.1	80	34.4	2	6	315	0.00	30.194 
14:25	40.3	40.3	40.3	77	33.7	2	4	292	0.00	30.192 
14:30	40.6	40.6	40.6	75	33.3	2	5	248	0.00	30.188 
14:35	40.6	40.6	40.6	74	33.0	2	6	248	0.00	30.186 
14:40	40.3	40.3	40.3	74	32.7	3	7	270	0.00	30.185 
14:45	40.1	40.1	40.1	74	32.5	3	6	270	0.00	30.188 
14:50	40.1	40.1	40.1	73	32.2	3	6	270	0.00	30.185 
14:55	40.1	40.1	40.1	72	31.8	3	8	270	0.00	30.182 
15:00	40.1	40.1	40.1	73	32.2	2	5	270	0.00	30.178 
15:05	40.2	40.2	40.2	71	31.6	2	5	315	0.00	30.177 
15:10	40.1	40.1	40.1	70	31.1	3	10	315	0.00	30.179 
15:15	39.9	39.9	39.9	70	30.9	2	6	270	0.00	30.180 
15:20	39.8	37.1	39.8	70	30.8	4	10	270	0.00	30.182 
15:25	39.5	39.5	39.5	69	30.2	3	6	270	0.00	30.177 
15:30	39.5	39.5	39.5	69	30.2	3	7	292	0.00	30.175 
15:35	39.3	39.3	39.3	69	30.0	3	6	292	0.00	30.175 
15:40	39.3	39.3	39.3	68	29.6	3	5	292	0.00	30.178 
15:45	39.2	39.2	39.2	69	29.9	2	5	315	0.00	30.179 
15:50	38.9	38.9	38.9	69	29.6	3	7	315	0.00	30.179 
15:55	38.8	38.8	38.8	68	29.2	3	5	292	0.00	30.183 
16:00	38.8	35.9	38.8	67	28.8	4	6	315	0.00	30.186 
16:05	38.6	38.6	38.6	67	28.6	3	6	315	0.00	30.181 
16:10	38.6	38.6	38.6	66	28.2	2	5	315	0.00	30.181 
16:15	38.6	38.6	38.6	66	28.2	2	5	315	0.00	30.181 
16:20	38.6	38.6	38.6	65	27.9	2	4	315	0.00	30.181 
16:25	38.6	38.6	38.6	65	27.9	1	3	315	0.00	30.179 
16:30	38.8	38.8	38.8	65	28.1	1	4	315	0.00	30.178 
16:35	38.8	38.8	38.8	64	27.7	2	5	270	0.00	30.176 
16:40	38.6	38.6	38.6	64	27.5	1	4	315	0.00	30.175 
16:45	38.6	38.6	38.6	64	27.5	2	6	292	0.00	30.174 
16:50	38.6	38.6	38.6	64	27.5	2	5	270	0.00	30.172 
16:55	38.6	38.6	38.6	64	27.5	2	5	292	0.00	30.174 
17:00	38.6	38.6	38.6	63	27.1	2	6	270	0.00	30.176 
17:05	38.6	38.6	38.6	62	26.7	1	4	315	0.00	30.177 
17:10	38.6	38.6	38.6	62	26.7	2	5	315	0.00	30.178 
17:15	38.6	38.6	38.6	62	26.7	1	3	315	0.00	30.176 
17:20	38.6	38.6	38.6	62	26.7	2	5	315	0.00	30.176 
17:25	38.6	38.6	38.6	62	26.7	2	5	315	0.00	30.175 
17:30	38.6	38.6	38.6	62	26.7	1	4	270	0.00	30.174 
17:35	38.6	38.6	38.6	62	26.7	2	5	270	0.00	30.173 
17:40	38.6	38.6	38.6	62	26.7	2	4	315	0.00	30.173 
17:45	38.6	38.6	38.6	62	26.7	1	4	270	0.00	30.175 
17:50	38.6	38.6	38.6	63	27.1	0	2	315	0.00	30.172 
17:55	38.5	38.5	38.5	63	27.0	1	5	270	0.00	30.168 
18:00	38.5	38.5	38.5	63	27.0	0	2	315	0.00	30.166 
18:05	38.5	38.5	38.5	63	27.0	2	3	315	0.00	30.166 
18:10	38.5	38.5	38.5	63	27.0	1	4	270	0.00	30.167 
18:15	38.5	38.5	38.5	63	27.0	1	3	270	0.00	30.163 
18:20	38.5	38.5	38.5	61	26.2	1	4	270	0.00	30.171 
18:25	38.5	38.5	38.5	60	25.8	2	6	292	0.00	30.171 
18:30	38.6	38.6	38.6	59	25.5	2	6	338	0.00	30.170 
18:35	38.6	38.6	38.6	59	25.5	2	6	270	0.00	30.168 
18:40	38.6	38.6	38.6	59	25.5	2	5	315	0.00	30.167 
18:45	38.5	38.5	38.5	59	25.4	2	4	292	0.00	30.161 
18:50	38.5	38.5	38.5	60	25.8	2	5	270	0.00	30.164 
18:55	38.3	38.3	38.3	60	25.6	2	4	270	0.00	30.164 
19:00	38.2	38.2	38.2	60	25.6	1	3	270	0.00	30.160 
19:05	38.0	38.0	38.0	61	25.8	1	4	248	0.00	30.156 
19:10	37.9	37.9	37.9	61	25.7	1	3	270	0.00	30.158 
19:15	37.8	37.8	37.8	62	26.0	1	2	270	0.00	30.159 
19:20	37.6	37.6	37.6	62	25.8	1	2	270	0.00	30.158 
19:25	37.5	37.5	37.5	63	26.1	1	3	270	0.00	30.157 
19:30	37.5	37.5	37.5	63	26.1	1	2	270	0.00	30.157 
19:35	37.5	37.5	37.5	64	26.4	1	2	270	0.00	30.152 
19:40	37.5	37.5	37.5	63	26.1	1	3	270	0.00	30.151 
19:45	37.5	37.5	37.5	64	26.4	1	3	270	0.00	30.147 
19:50	37.5	37.5	37.5	63	26.1	1	3	270	0.00	30.148 
19:55	37.6	37.6	37.6	63	26.2	1	2	270	0.00	30.145 
20:00	37.6	37.6	37.6	64	26.5	0	2	270	0.00	30.144 
20:05	37.5	37.5	37.5	64	26.4	0	2	270	0.00	30.140 
20:10	37.3	37.3	37.3	64	26.3	0	2	270	0.00	30.137 
20:15	37.2	37.2	37.2	65	26.5	0	2	270	0.00	30.138 
20:20	37.2	37.2	37.2	64	26.2	1	2	270	0.00	30.138 
20:25	37.2	37.2	37.2	64	26.2	1	3	270	0.00	30.138 
20:30	37.2	37.2	37.2	64	26.2	0	1	270	0.00	30.130 
20:35	37.0	37.0	37.0	64	26.0	1	2	270	0.00	30.131 
20:40	36.9	36.9	36.9	64	25.9	0	1	270	0.00	30.129 
20:45	36.9	36.9	36.9	64	25.9	0	2	270	0.00	30.129 
20:50	36.9	36.9	36.9	64	25.9	1	2	270	0.00	30.126 
20:55	36.9	36.9	36.9	64	25.9	1	2	270	0.00	30.126 
21:00	36.8	36.8	36.8	64	25.8	1	2	270	0.00	30.125 
21:05	36.8	36.8	36.8	64	25.8	0	2	270	0.00	30.124 
21:10	36.8	36.8	36.8	64	25.8	1	3	270	0.00	30.123 
21:15	36.8	36.8	36.8	63	25.4	1	3	270	0.00	30.113 
21:20	36.8	36.8	36.8	63	25.4	1	3	270	0.00	30.112 
21:25	36.8	36.8	36.8	63	25.4	1	2	270	0.00	30.116 
21:30	36.6	36.6	36.6	64	25.6	1	2	270	0.00	30.111 
21:35	36.6	36.6	36.6	63	25.2	1	3	248	0.00	30.111 
21:40	36.5	36.5	36.5	63	25.1	1	2	248	0.00	30.110 
21:45	36.3	36.3	36.3	64	25.3	1	3	248	0.00	30.109 
21:50	36.2	36.2	36.2	64	25.2	1	2	248	0.00	30.108 
21:55	36.0	36.0	36.0	64	25.0	1	2	248	0.00	30.107 
22:00	35.9	35.9	35.9	64	24.9	1	3	248	0.00	30.103 
22:05	35.9	35.9	35.9	64	24.9	1	3	248	0.00	30.102 
22:10	35.8	35.8	35.8	64	24.8	1	3	248	0.00	30.100 
22:15	35.8	35.8	35.8	64	24.8	1	3	248	0.00	30.094 
22:20	35.6	35.6	35.6	64	24.6	1	3	248	0.00	30.096 
22:25	35.5	35.5	35.5	64	24.5	1	2	248	0.00	30.095 
22:30	35.5	35.5	35.5	64	24.5	1	2	248	0.00	30.091 
22:35	35.3	35.3	35.3	64	24.4	1	3	248	0.00	30.092 
22:40	35.2	35.2	35.2	65	24.6	1	3	248	0.00	30.087 
22:45	35.2	35.2	35.2	64	24.3	1	3	248	0.00	30.084 
22:50	35.2	35.2	35.2	64	24.3	1	3	248	0.00	30.081 
22:55	35.0	35.0	35.0	65	24.4	1	3	248	0.00	30.079 
23:00	34.9	34.9	34.9	65	24.3	1	4	248	0.00	30.076 
23:05	34.9	34.9	34.9	65	24.3	1	3	248	0.00	30.076 
23:10	34.9	34.9	34.9	65	24.3	1	3	270	0.00	30.075 
23:15	34.9	34.9	34.9	65	24.3	1	3	270	0.00	30.073 
23:20	34.7	34.7	34.7	65	24.2	1	2	270	0.00	30.072 
23:25	34.7	34.7	34.7	65	24.2	1	2	270	0.00	30.068 
23:30	34.7	34.7	34.7	65	24.2	1	3	270	0.00	30.069 
23:35	34.7	34.7	34.7	65	24.2	1	2	270	0.00	30.070 
23:40	34.6	34.6	34.6	65	24.1	1	3	270	0.00	30.071 
23:45	34.6	34.6	34.6	66	24.4	1	3	270	0.00	30.068 
23:50	34.4	34.4	34.4	66	24.2	1	2	270	0.00	30.065 
23:55	34.3	34.3	34.3	66	24.1	1	2	270	0.00	30.064 

CoCoRaHS
IN-AL-39
A2 Web Hosting
Creative Commons License
GoDaddy
Look for:

loaded 2017-10-20 20:04:06 • last modified 2010-11-18 10:43:29
Privacy PolicyDisclaimer
• wx.awcolley.com is powered by PmWiki v.2002016 •
• all content (unless otherwise noted) © 2017 A W Colley